Terminal Aerodrome Forecast
Issued by NWS

Home | Current Version | Previous Version | Text Only | Print | Product List | Glossary On
Versions: 1 2 3 4 5 6 7 8 9 10 11 12 13
000
FTUS45 KVEF 012300
TAFEED
TAF
KEED 012323Z 0200/0224 21010KT P6SM SCT140
     FM021000 21010G20KT P6SM VCSH BKN140=

USA.gov is the U.S. government's official web portal to all federal, state and local government web resources and services.